createdAt,value
2023-04-05T00:01:20.324Z,99265.35
2023-04-05T00:03:48.829Z,99259.99
2023-04-05T00:06:17.309Z,99252.32
2023-04-05T00:08:50.069Z,99244.36
2023-04-05T00:11:18.782Z,99236.69
2023-04-05T00:13:46.900Z,99228.25
2023-04-05T00:16:19.071Z,99228.59
2023-04-05T00:18:51.694Z,99233.21
2023-04-05T00:21:23.004Z,99238.08
2023-04-05T00:23:53.066Z,99240.70
2023-04-05T00:26:21.349Z,99247.30
2023-04-05T00:28:51.163Z,99250.46
2023-04-05T00:31:19.295Z,99238.90
2023-04-05T00:33:47.925Z,99235.96
2023-04-05T00:36:18.153Z,99224.10
2023-04-05T00:38:47.231Z,99217.92
2023-04-05T00:41:15.336Z,99213.88
2023-04-05T00:43:43.894Z,99205.74
2023-04-05T00:46:13.665Z,99197.94
2023-04-05T00:48:41.604Z,99192.88
2023-04-05T00:51:11.855Z,99191.16
2023-04-05T00:53:41.385Z,99190.54
2023-04-05T00:56:10.417Z,99193.44
2023-04-05T00:58:41.475Z,99193.73
2023-04-05T01:01:19.921Z,99195.86
2023-04-05T01:04:00.081Z,99193.39
2023-04-05T01:06:34.026Z,99193.17
2023-04-05T01:09:06.617Z,99195.86
2023-04-05T01:11:34.713Z,99193.54
2023-04-05T01:14:02.751Z,99193.88
2023-04-05T01:16:30.877Z,99193.79
2023-04-05T01:18:59.096Z,99190.95
2023-04-05T01:21:39.454Z,99188.41
2023-04-05T01:24:21.093Z,99186.90
2023-04-05T01:27:08.252Z,99187.16
2023-04-05T01:29:42.176Z,99183.85
2023-04-05T01:32:28.165Z,99189.48
2023-04-05T01:35:04.735Z,99184.75
2023-04-05T01:37:34.593Z,99186.48
2023-04-05T01:40:02.774Z,99183.55
2023-04-05T01:42:31.551Z,99183.02
2023-04-05T01:44:59.629Z,99179.83
2023-04-05T01:47:27.622Z,99171.14
2023-04-05T01:49:55.803Z,99160.61
2023-04-05T01:52:27.046Z,99156.73
2023-04-05T01:54:56.499Z,99153.59
2023-04-05T01:57:24.627Z,99149.08
2023-04-05T01:59:56.904Z,99142.58
2023-04-05T02:02:26.122Z,99144.61
2023-04-05T02:04:54.573Z,99141.40
2023-04-05T02:07:24.513Z,99138.02
2023-04-05T02:09:52.504Z,99138.09
2023-04-05T02:12:21.045Z,99129.34
2023-04-05T02:14:52.732Z,99125.94
2023-04-05T02:17:22.035Z,99119.34
2023-04-05T02:19:53.022Z,99127.02
2023-04-05T02:22:22.823Z,99129.38
2023-04-05T02:24:51.354Z,99129.96
2023-04-05T02:27:19.494Z,99126.14
2023-04-05T02:29:47.579Z,99121.23
2023-04-05T02:32:16.096Z,99121.14
2023-04-05T02:34:44.245Z,99123.30
2023-04-05T02:37:12.315Z,99134.02
2023-04-05T02:39:42.262Z,99126.67
2023-04-05T02:42:10.470Z,99130.04
2023-04-05T02:44:38.916Z,99125.14
2023-04-05T02:47:11.004Z,99122.80
2023-04-05T02:49:41.553Z,99119.26
2023-04-05T02:52:10.741Z,99121.07
2023-04-05T02:54:39.242Z,99119.34
2023-04-05T02:57:10.676Z,99117.98
2023-04-05T02:59:45.475Z,99119.54
2023-04-05T03:02:13.469Z,99121.41
2023-04-05T03:04:44.992Z,99116.23
2023-04-05T03:07:18.696Z,99122.17
2023-04-05T03:09:47.836Z,99125.49
2023-04-05T03:12:16.467Z,99121.88
2023-04-05T03:14:46.467Z,99128.45
2023-04-05T03:17:17.519Z,99132.52
2023-04-05T03:19:49.814Z,99127.70
2023-04-05T03:22:22.143Z,99123.73
2023-04-05T03:24:50.132Z,99124.73
2023-04-05T03:27:21.986Z,99119.06
2023-04-05T03:30:08.360Z,99119.89
2023-04-05T03:32:41.536Z,99122.86
2023-04-05T03:35:21.196Z,99135.08
2023-04-05T03:37:50.716Z,99131.38
2023-04-05T03:40:19.187Z,99125.82
2023-04-05T03:42:49.007Z,99125.88
2023-04-05T03:45:21.110Z,99125.36
2023-04-05T03:47:56.080Z,99126.75
2023-04-05T03:50:24.220Z,99130.04
2023-04-05T03:52:53.672Z,99128.56
2023-04-05T03:55:21.893Z,99125.38
2023-04-05T03:57:50.692Z,99122.52
2023-04-05T04:00:24.673Z,99125.83
2023-04-05T04:03:07.751Z,99121.84
2023-04-05T04:05:39.423Z,99118.33
2023-04-05T04:08:10.054Z,99118.52
2023-04-05T04:10:39.121Z,99116.81
2023-04-05T04:13:19.875Z,99112.11
2023-04-05T04:15:55.018Z,99115.10
2023-04-05T04:18:32.142Z,99110.23
2023-04-05T04:21:26.542Z,99106.84
2023-04-05T04:24:02.192Z,99105.96
2023-04-05T04:27:03.474Z,99104.56
2023-04-05T04:29:48.553Z,99104.45
2023-04-05T04:32:51.876Z,99105.20
2023-04-05T04:35:47.313Z,99104.92
2023-04-05T04:38:54.770Z,99100.68
2023-04-05T04:41:49.016Z,99097.12
2023-04-05T04:44:58.213Z,99097.96
2023-04-05T04:47:47.233Z,99100.77
2023-04-05T04:50:35.148Z,99109.72
2023-04-05T04:53:03.556Z,99108.03
2023-04-05T04:55:33.965Z,99110.83
2023-04-05T04:58:09.947Z,99103.12
2023-04-05T05:00:48.310Z,99102.74
2023-04-05T05:03:18.646Z,99100.80
2023-04-05T05:05:50.334Z,99106.98
2023-04-05T05:08:22.418Z,99113.08
2023-04-05T05:10:53.370Z,99107.30
2023-04-05T05:13:22.394Z,99108.94
2023-04-05T05:15:50.695Z,99107.13
2023-04-05T05:18:18.791Z,99106.59
2023-04-05T05:20:50.590Z,99101.73
2023-04-05T05:23:18.784Z,99102.42
2023-04-05T05:25:47.480Z,99093.40
2023-04-05T05:28:17.491Z,99088.52
2023-04-05T05:30:45.939Z,99087.75
2023-04-05T05:33:15.112Z,99084.71
2023-04-05T05:35:43.602Z,99083.33
2023-04-05T05:38:13.893Z,99083.91
2023-04-05T05:40:42.454Z,99078.40
2023-04-05T05:43:11.740Z,99082.38
2023-04-05T05:45:39.938Z,99078.36
2023-04-05T05:48:09.855Z,99084.71
2023-04-05T05:50:39.572Z,99082.16
2023-04-05T05:53:08.791Z,99083.67
2023-04-05T05:55:36.978Z,99084.39
2023-04-05T05:58:07.798Z,99078.94
2023-04-05T06:00:39.497Z,99074.52
2023-04-05T06:03:14.540Z,99078.89
2023-04-05T06:05:54.393Z,99076.05
2023-04-05T06:08:23.027Z,99069.10
2023-04-05T06:10:52.286Z,99080.23
2023-04-05T06:13:20.528Z,99083.69
2023-04-05T06:15:48.817Z,99076.07
2023-04-05T06:18:20.779Z,99084.11
2023-04-05T06:20:48.733Z,99085.70
2023-04-05T06:23:18.440Z,99091.23
2023-04-05T06:25:46.506Z,99087.50
2023-04-05T06:28:14.502Z,99084.90
2023-04-05T06:30:43.110Z,99081.28
2023-04-05T06:33:12.120Z,99084.09
2023-04-05T06:35:40.728Z,99082.47
2023-04-05T06:38:09.602Z,99081.88
2023-04-05T06:40:38.001Z,99082.10
2023-04-05T06:43:06.507Z,99082.25
2023-04-05T06:45:35.113Z,99080.20
2023-04-05T06:48:03.555Z,99088.27
2023-04-05T06:50:31.832Z,99085.30
2023-04-05T06:53:00.219Z,99092.27
2023-04-05T06:55:29.797Z,99092.43
2023-04-05T06:57:58.319Z,99086.91
2023-04-05T07:00:26.699Z,99088.45
2023-04-05T07:02:56.077Z,99085.02
2023-04-05T07:05:24.285Z,99083.48
2023-04-05T07:07:54.974Z,99080.35
2023-04-05T07:10:23.042Z,99077.61
2023-04-05T07:12:51.140Z,99076.05
2023-04-05T07:15:22.764Z,99069.67
2023-04-05T07:17:56.087Z,99064.50
2023-04-05T07:20:23.984Z,99064.85
2023-04-05T07:22:52.225Z,99062.66
2023-04-05T07:25:23.584Z,99064.21
2023-04-05T07:27:54.603Z,99063.73
2023-04-05T07:30:22.708Z,99061.65
2023-04-05T07:32:55.575Z,99061.89
2023-04-05T07:35:24.468Z,99059.45
2023-04-05T07:37:57.758Z,99058.62
2023-04-05T07:40:26.235Z,99059.44
2023-04-05T07:42:54.873Z,99056.38
2023-04-05T07:45:23.571Z,99066.05
2023-04-05T07:47:51.816Z,99062.64
2023-04-05T07:50:19.943Z,99063.98
2023-04-05T07:52:48.060Z,99060.26
2023-04-05T07:55:17.449Z,99060.24
2023-04-05T07:57:45.950Z,99055.08
2023-04-05T08:00:15.709Z,99056.71
2023-04-05T08:02:48.244Z,99062.42
2023-04-05T08:05:16.627Z,99062.56
2023-04-05T08:07:44.781Z,99063.89
2023-04-05T08:12:53.757Z,99068.62
2023-04-05T08:15:22.148Z,99070.34
2023-04-05T08:17:50.870Z,99070.83
2023-04-05T08:20:19.205Z,99068.38
2023-04-05T08:22:47.922Z,99069.15
2023-04-05T08:25:15.988Z,99071.02
2023-04-05T08:27:44.315Z,99077.58
2023-04-05T08:30:13.294Z,99076.92
2023-04-05T08:32:41.537Z,99077.52
2023-04-05T08:35:09.541Z,99076.59
2023-04-05T08:37:38.330Z,99073.42
2023-04-05T08:40:07.294Z,99069.52
2023-04-05T08:42:53.082Z,99073.44
2023-04-05T08:45:22.422Z,99076.60
2023-04-05T08:47:53.059Z,99073.45
2023-04-05T08:50:21.090Z,99070.95
2023-04-05T08:52:50.669Z,99076.77
2023-04-05T08:55:19.562Z,99072.75
2023-04-05T08:57:51.334Z,99070.86
2023-04-05T09:00:19.563Z,99065.30
2023-04-05T09:02:51.270Z,99067.57
2023-04-05T09:05:21.137Z,99062.41
2023-04-05T09:07:49.252Z,99066.98
2023-04-05T09:10:19.988Z,99069.02
2023-04-05T09:12:48.734Z,99070.60
2023-04-05T09:15:16.867Z,99066.92
2023-04-05T09:17:46.455Z,99072.06
2023-04-05T09:20:15.823Z,99070.45
2023-04-05T09:22:47.146Z,99065.93
2023-04-05T09:25:31.588Z,99066.35
2023-04-05T09:27:59.908Z,99061.70
2023-04-05T09:30:28.132Z,99064.40
2023-04-05T09:32:57.009Z,99060.57
2023-04-05T09:35:26.226Z,99064.53
2023-04-05T09:37:56.346Z,99064.95
2023-04-05T09:40:49.121Z,99066.29
2023-04-05T09:43:36.761Z,99062.64
2023-04-05T09:46:04.768Z,99065.18
2023-04-05T09:48:58.015Z,99066.35
2023-04-05T09:51:37.255Z,99067.21
2023-04-05T09:54:11.565Z,99069.16
2023-04-05T09:56:41.448Z,99068.66
2023-04-05T09:59:11.873Z,99069.36
2023-04-05T10:01:43.802Z,99062.49
2023-04-05T10:04:13.332Z,99058.18
2023-04-05T10:06:42.453Z,99059.42
2023-04-05T10:09:11.487Z,99048.64
2023-04-05T10:11:42.569Z,99046.52
2023-04-05T10:14:11.453Z,99041.48
2023-04-05T10:16:47.604Z,99043.46
2023-04-05T10:19:49.536Z,99038.52
2023-04-05T10:22:55.081Z,99041.95
2023-04-05T10:25:27.571Z,99041.41
2023-04-05T10:28:05.847Z,99039.27
2023-04-05T10:30:40.908Z,99039.93
2023-04-05T10:33:21.968Z,99039.27
2023-04-05T10:35:58.531Z,99043.07
2023-04-05T10:38:30.182Z,99043.92
2023-04-05T10:41:06.908Z,99042.27
2023-04-05T10:43:35.023Z,99041.45
2023-04-05T10:46:03.345Z,99044.94
2023-04-05T10:48:49.927Z,99034.81
2023-04-05T10:51:18.058Z,99040.77
2023-04-05T10:53:46.763Z,99046.52
2023-04-05T10:56:20.079Z,99047.91
2023-04-05T10:58:51.789Z,99047.77
2023-04-05T11:01:23.473Z,99042.16
2023-04-05T11:03:52.546Z,99051.85
2023-04-05T11:06:25.298Z,99049.78
2023-04-05T11:09:20.950Z,99047.11
2023-04-05T11:11:52.570Z,99049.35
2023-04-05T11:14:37.133Z,99050.77
2023-04-05T11:17:28.614Z,99049.83
2023-04-05T11:20:04.630Z,99047.45
2023-04-05T11:22:33.397Z,99045.04
2023-04-05T11:25:03.202Z,99043.11
2023-04-05T11:27:34.009Z,99043.30
2023-04-05T11:30:04.351Z,99045.66
2023-04-05T11:32:44.179Z,99046.77
2023-04-05T11:35:16.308Z,99044.17
2023-04-05T11:38:01.486Z,99048.02
2023-04-05T11:40:31.197Z,99047.98
2023-04-05T11:43:01.293Z,99045.38
2023-04-05T11:45:33.079Z,99046.22
2023-04-05T11:48:05.145Z,99043.55
2023-04-05T11:50:33.701Z,99039.59
2023-04-05T11:53:28.311Z,99043.29
2023-04-05T11:55:57.081Z,99037.85
2023-04-05T11:58:25.531Z,99042.17
2023-04-05T12:01:01.011Z,99035.27
2023-04-05T12:03:30.783Z,99037.39
2023-04-05T12:06:01.844Z,99029.45
2023-04-05T12:08:49.955Z,99029.93
2023-04-05T12:11:27.855Z,99024.65
2023-04-05T12:13:59.936Z,99024.66
2023-04-05T12:16:28.537Z,99020.30
2023-04-05T12:18:58.637Z,99012.62
2023-04-05T12:21:27.773Z,99008.39
2023-04-05T12:23:56.217Z,99007.75
2023-04-05T12:26:26.903Z,99007.16
2023-04-05T12:29:00.359Z,99001.33
2023-04-05T12:31:41.098Z,98996.05
2023-04-05T12:34:10.008Z,98994.62
2023-04-05T12:36:39.746Z,98998.15
2023-04-05T12:39:09.199Z,99000.70
2023-04-05T12:41:37.716Z,98997.83
2023-04-05T12:44:11.394Z,98993.28
2023-04-05T12:46:43.425Z,98990.53
2023-04-05T12:49:13.802Z,98995.92
2023-04-05T12:51:46.163Z,98992.50
2023-04-05T12:54:23.373Z,98994.73
2023-04-05T12:56:53.273Z,98986.98
2023-04-05T12:59:22.253Z,98987.16
2023-04-05T13:01:51.461Z,98982.42
2023-04-05T13:04:19.763Z,98977.45
2023-04-05T13:06:48.400Z,98984.39
2023-04-05T13:09:17.355Z,98978.35
2023-04-05T13:11:45.606Z,98988.92
2023-04-05T13:14:14.261Z,98988.93
2023-04-05T13:16:44.133Z,98989.38
2023-04-05T13:19:12.363Z,98985.56
2023-04-05T13:21:46.377Z,98982.30
2023-04-05T13:24:15.310Z,98982.59
2023-04-05T13:26:45.301Z,98980.95
2023-04-05T13:29:15.908Z,98978.66
2023-04-05T13:31:44.384Z,98977.12
2023-04-05T13:34:13.013Z,98977.61
2023-04-05T13:36:41.107Z,98976.14
2023-04-05T13:39:09.829Z,98969.64
2023-04-05T13:41:38.110Z,98967.77
2023-04-05T13:44:06.861Z,98971.48
2023-04-05T13:46:35.758Z,98976.08
2023-04-05T13:49:03.916Z,98976.05
2023-04-05T13:51:34.697Z,98976.03
2023-04-05T13:54:03.773Z,98977.60
2023-04-05T13:56:34.835Z,98980.03
2023-04-05T13:59:04.382Z,98976.23
2023-04-05T14:01:34.432Z,98978.73
2023-04-05T14:04:02.535Z,98974.41
2023-04-05T14:06:31.214Z,98975.20
2023-04-05T14:08:59.511Z,98971.81
2023-04-05T14:11:28.597Z,98967.48
2023-04-05T14:13:56.670Z,98964.45
2023-04-05T14:16:32.142Z,98962.41
2023-04-05T14:19:01.111Z,98958.39
2023-04-05T14:21:30.021Z,98957.75
2023-04-05T14:23:58.802Z,98951.79
2023-04-05T14:26:27.865Z,98952.41
2023-04-05T14:28:56.056Z,98956.67
2023-04-05T14:31:26.214Z,98948.82
2023-04-05T14:33:55.454Z,98954.19
2023-04-05T14:36:23.479Z,98953.85
2023-04-05T14:38:56.399Z,98949.09
2023-04-05T14:41:24.843Z,98953.86
2023-04-05T14:43:53.482Z,98958.08
2023-04-05T14:46:21.542Z,98956.84
2023-04-05T14:48:49.539Z,98960.99
2023-04-05T14:51:17.457Z,98964.34
2023-04-05T14:53:48.324Z,98962.73
2023-04-05T14:56:17.642Z,98969.15
2023-04-05T14:58:45.591Z,98975.16
2023-04-05T15:01:13.574Z,98973.36
2023-04-05T15:03:42.850Z,98974.48
2023-04-05T15:06:11.022Z,98974.23
2023-04-05T15:08:39.266Z,98975.36
2023-04-05T15:11:12.510Z,98975.33
2023-04-05T15:13:41.065Z,98979.46
2023-04-05T15:16:09.539Z,98970.80
2023-04-05T15:18:39.572Z,98971.39
2023-04-05T15:21:07.887Z,98962.05
2023-04-05T15:23:40.710Z,98962.88
2023-04-05T15:26:08.896Z,98963.84
2023-04-05T15:28:36.797Z,98962.50
2023-04-05T15:31:04.769Z,98961.25
2023-04-05T15:33:33.149Z,98956.44
2023-04-05T15:36:01.215Z,98965.86
2023-04-05T15:38:29.795Z,98973.73
2023-04-05T15:40:58.006Z,98973.23
2023-04-05T15:43:26.688Z,98974.42
2023-04-05T15:45:55.017Z,98974.64
2023-04-05T15:48:22.968Z,98972.06
2023-04-05T15:50:51.248Z,98971.92
2023-04-05T15:53:19.243Z,98973.31
2023-04-05T15:55:47.801Z,98972.84
2023-04-05T15:58:15.930Z,98969.38
2023-04-05T16:00:45.971Z,98964.35
2023-04-05T16:03:15.117Z,98970.44
2023-04-05T16:05:43.226Z,98966.71
2023-04-05T16:08:13.282Z,98964.70
2023-04-05T16:10:42.667Z,98961.30
2023-04-05T16:13:11.765Z,98965.13
2023-04-05T16:15:40.936Z,98960.80
2023-04-05T16:18:11.146Z,98959.01
2023-04-05T16:20:39.506Z,98957.83
2023-04-05T16:23:08.530Z,98958.77
2023-04-05T16:25:36.464Z,98962.22
2023-04-05T16:28:06.620Z,98962.17
2023-04-05T16:30:35.933Z,98967.18
2023-04-05T16:33:04.108Z,98966.88
2023-04-05T16:35:33.069Z,98966.13
2023-04-05T16:38:02.748Z,98970.23
2023-04-05T16:40:32.580Z,98967.84
2023-04-05T16:43:00.988Z,98964.82
2023-04-05T16:45:30.750Z,98963.52
2023-04-05T16:47:59.622Z,98961.72
2023-04-05T16:50:27.788Z,98964.23
2023-04-05T16:52:56.197Z,98963.95
2023-04-05T16:55:24.244Z,98968.54
2023-04-05T16:57:54.196Z,98971.64
2023-04-05T17:00:23.111Z,98965.85
2023-04-05T17:02:52.547Z,98966.23
2023-04-05T17:05:21.092Z,98966.61
2023-04-05T17:07:51.188Z,98972.27
2023-04-05T17:10:19.387Z,98975.65
2023-04-05T17:12:51.832Z,98976.48
2023-04-05T17:15:19.901Z,98973.80
2023-04-05T17:17:47.979Z,98978.08
2023-04-05T17:20:16.334Z,98976.21
2023-04-05T17:22:46.158Z,98982.77
2023-04-05T17:25:14.240Z,98984.92
2023-04-05T17:27:42.502Z,98984.56
2023-04-05T17:30:11.518Z,98983.36
2023-04-05T17:32:39.949Z,98989.13
2023-04-05T17:35:08.895Z,98986.61
2023-04-05T17:37:37.582Z,98985.06
2023-04-05T17:40:07.188Z,98989.02
2023-04-05T17:42:36.334Z,98988.17
2023-04-05T17:45:05.250Z,98985.41
2023-04-05T17:47:33.682Z,98983.65
2023-04-05T17:50:01.881Z,98986.60
2023-04-05T17:52:31.393Z,98991.94
2023-04-05T17:54:59.658Z,98989.54
2023-04-05T17:57:27.684Z,98992.21
2023-04-05T17:59:57.481Z,98991.02
2023-04-05T18:02:25.747Z,98984.87
2023-04-05T18:04:54.173Z,98987.27
2023-04-05T18:07:22.326Z,98986.86
2023-04-05T18:09:50.827Z,98987.17
2023-04-05T18:12:19.186Z,98985.97
2023-04-05T18:14:47.374Z,98984.74
2023-04-05T18:17:17.896Z,98983.23
2023-04-05T18:19:49.586Z,98979.75
2023-04-05T18:22:18.067Z,98981.45
2023-04-05T18:24:46.241Z,98978.42
2023-04-05T18:27:14.660Z,98972.64
2023-04-05T18:29:46.297Z,98969.90
2023-04-05T18:32:14.633Z,98970.77
2023-04-05T18:34:42.949Z,98971.61
2023-04-05T18:37:11.866Z,98962.48
2023-04-05T18:39:40.187Z,98961.45
2023-04-05T18:42:08.267Z,98961.67
2023-04-05T18:44:36.668Z,98953.88
2023-04-05T18:47:05.048Z,98952.11
2023-04-05T18:49:34.271Z,98958.58
2023-04-05T18:52:02.231Z,98953.34
2023-04-05T18:54:35.532Z,98951.14
2023-04-05T18:57:04.977Z,98950.32
2023-04-05T18:59:33.498Z,98951.39
2023-04-05T19:02:01.670Z,98942.51
2023-04-05T19:04:31.717Z,98954.58
2023-04-05T19:06:59.814Z,98943.37
2023-04-05T19:09:28.116Z,98943.29
2023-04-05T19:11:57.004Z,98946.14
2023-04-05T19:14:31.725Z,98942.09
2023-04-05T19:16:59.854Z,98938.46
2023-04-05T19:19:28.233Z,98938.84
2023-04-05T19:21:58.898Z,98941.38
2023-04-05T19:24:27.595Z,98935.55
2023-04-05T19:26:57.278Z,98936.48
2023-04-05T19:29:25.796Z,98928.21
2023-04-05T19:31:54.484Z,98927.22
2023-04-05T19:34:22.710Z,98923.81
2023-04-05T19:36:50.855Z,98921.73
2023-04-05T19:39:19.022Z,98919.21
2023-04-05T19:41:47.290Z,98909.76
2023-04-05T19:44:42.780Z,98911.69
2023-04-05T19:47:13.952Z,98905.54
2023-04-05T19:49:42.577Z,98901.88
2023-04-05T19:52:13.056Z,98896.83
2023-04-05T19:54:42.079Z,98898.35
2023-04-05T19:57:11.681Z,98899.75
2023-04-05T19:59:43.533Z,98895.04
2023-04-05T20:02:34.354Z,98892.79
2023-04-05T20:05:05.059Z,98886.39
2023-04-05T20:07:36.265Z,98884.69
2023-04-05T20:10:13.804Z,98880.65
2023-04-05T20:12:44.839Z,98879.64
2023-04-05T20:15:15.950Z,98873.54
2023-04-05T20:17:47.165Z,98872.42
2023-04-05T20:20:16.678Z,98873.26
2023-04-05T20:22:44.984Z,98879.20
2023-04-05T20:25:36.508Z,98867.53
2023-04-05T20:29:46.376Z,98863.57
2023-04-05T20:32:15.138Z,98861.48
2023-04-05T20:34:44.169Z,98863.87
2023-04-05T20:37:19.201Z,98858.25
2023-04-05T20:39:47.243Z,98856.05
2023-04-05T20:42:15.495Z,98850.77
2023-04-05T20:44:49.067Z,98841.98
2023-04-05T20:47:17.122Z,98840.05
2023-04-05T20:49:47.649Z,98838.04
2023-04-05T20:52:17.440Z,98838.40
2023-04-05T20:54:47.296Z,98831.96
2023-04-05T20:57:16.211Z,98828.69
2023-04-05T20:59:44.694Z,98824.89
2023-04-05T21:02:13.106Z,98823.45
2023-04-05T21:04:42.638Z,98819.56
2023-04-05T21:07:12.111Z,98823.09
2023-04-05T21:09:40.469Z,98811.27
2023-04-05T21:12:08.611Z,98813.95
2023-04-05T21:14:37.331Z,98810.70
2023-04-05T21:17:05.398Z,98802.91
2023-04-05T21:19:33.746Z,98806.98
2023-04-05T21:22:02.681Z,98803.92
2023-04-05T21:24:31.195Z,98805.89
2023-04-05T21:26:59.626Z,98807.23
2023-04-05T21:29:37.383Z,98816.98
2023-04-05T21:32:06.279Z,98810.73
2023-04-05T21:34:34.344Z,98815.84
2023-04-05T21:37:03.613Z,98820.83
2023-04-05T21:39:33.248Z,98814.48
2023-04-05T21:42:01.407Z,98812.23
2023-04-05T21:44:29.937Z,98809.75
2023-04-05T21:46:59.573Z,98804.67
2023-04-05T21:49:38.129Z,98809.62
2023-04-05T21:52:06.355Z,98807.92
2023-04-05T21:54:34.459Z,98802.60
2023-04-05T21:57:04.898Z,98800.95
2023-04-05T21:59:33.387Z,98805.16
2023-04-05T22:02:01.942Z,98802.30
2023-04-05T22:04:30.161Z,98799.33
2023-04-05T22:06:58.285Z,98796.15
2023-04-05T22:09:28.288Z,98798.52
2023-04-05T22:12:01.605Z,98799.71
2023-04-05T22:14:30.769Z,98803.06
2023-04-05T22:16:59.120Z,98799.56
2023-04-05T22:19:32.150Z,98794.04
2023-04-05T22:22:00.547Z,98786.56
2023-04-05T22:24:28.556Z,98783.36
2023-04-05T22:26:57.346Z,98780.10
2023-04-05T22:29:25.501Z,98781.87
2023-04-05T22:31:54.610Z,98786.19
2023-04-05T22:34:22.866Z,98781.92
2023-04-05T22:36:50.887Z,98782.18
2023-04-05T22:39:18.963Z,98783.58
2023-04-05T22:41:46.941Z,98773.77
2023-04-05T22:44:21.730Z,98772.02
2023-04-05T22:46:49.752Z,98767.56
2023-04-05T22:49:17.808Z,98775.30
2023-04-05T22:51:46.821Z,98771.44
2023-04-05T22:54:14.868Z,98773.36
2023-04-05T22:56:44.629Z,98766.66
2023-04-05T22:59:12.820Z,98764.85
2023-04-05T23:01:41.217Z,98765.83
2023-04-05T23:04:09.968Z,98765.86
2023-04-05T23:06:39.121Z,98762.45
2023-04-05T23:09:08.279Z,98758.30
2023-04-05T23:11:36.687Z,98760.29
2023-04-05T23:14:05.176Z,98759.34
2023-04-05T23:16:33.233Z,98755.73
2023-04-05T23:19:01.980Z,98760.79
2023-04-05T23:21:31.265Z,98757.98
2023-04-05T23:23:59.449Z,98761.27
2023-04-05T23:26:27.812Z,98752.40
2023-04-05T23:28:56.050Z,98759.61
2023-04-05T23:31:24.713Z,98759.40
2023-04-05T23:33:54.295Z,98756.59
2023-04-05T23:36:22.435Z,98751.88
2023-04-05T23:38:50.504Z,98749.02
2023-04-05T23:41:18.641Z,98750.58
2023-04-05T23:43:47.381Z,98750.02
2023-04-05T23:46:15.517Z,98743.06
2023-04-05T23:48:44.874Z,98742.27
2023-04-05T23:51:12.853Z,98741.94
2023-04-05T23:53:40.972Z,98744.09
2023-04-05T23:56:09.745Z,98735.41
2023-04-05T23:58:37.989Z,98733.91
